createdAt,value
2022-12-03T00:02:14.048Z,102671.38
2022-12-03T00:04:40.452Z,102667.06
2022-12-03T00:07:06.806Z,102662.72
2022-12-03T00:09:33.201Z,102654.06
2022-12-03T00:11:59.569Z,102660.13
2022-12-03T00:14:25.954Z,102659.25
2022-12-03T00:16:52.368Z,102660.97
2022-12-03T00:19:18.724Z,102655.78
2022-12-03T00:21:45.070Z,102657.50
2022-12-03T00:24:11.455Z,102664.47
2022-12-03T00:26:37.822Z,102657.56
2022-12-03T00:29:04.235Z,102666.19
2022-12-03T00:31:30.607Z,102655.78
2022-12-03T00:33:57.012Z,102650.56
2022-12-03T00:36:23.385Z,102654.06
2022-12-03T00:38:49.787Z,102654.06
2022-12-03T00:41:16.181Z,102634.13
2022-12-03T00:43:42.596Z,102642.84
2022-12-03T00:46:09.621Z,102637.63
2022-12-03T00:48:36.077Z,102633.28
2022-12-03T00:51:02.734Z,102632.47
2022-12-03T00:53:29.180Z,102640.31
2022-12-03T00:55:55.574Z,102633.38
2022-12-03T00:58:21.955Z,102629.13
2022-12-03T01:00:48.349Z,102625.66
2022-12-03T01:03:14.743Z,102623.06
2022-12-03T01:05:41.131Z,102631.72
2022-12-03T01:08:07.560Z,102617.81
2022-12-03T01:10:33.940Z,102616.06
2022-12-03T01:13:00.274Z,102616.06
2022-12-03T01:15:26.633Z,102620.38
2022-12-03T01:17:54.263Z,102610.00
2022-12-03T01:20:20.872Z,102614.34
2022-12-03T01:22:47.257Z,102610.84
2022-12-03T01:25:13.619Z,102610.84
2022-12-03T01:27:39.961Z,102609.09
2022-12-03T01:30:07.314Z,102598.69
2022-12-03T01:32:33.795Z,102608.19
2022-12-03T01:35:00.341Z,102610.81
2022-12-03T01:37:27.017Z,102610.81
2022-12-03T01:39:53.538Z,102611.66
2022-12-03T01:42:24.588Z,102614.22
2022-12-03T01:44:53.518Z,102609.00
2022-12-03T01:47:24.536Z,102612.47
2022-12-03T01:49:52.549Z,102607.22
2022-12-03T01:52:23.946Z,102609.81
2022-12-03T01:54:56.094Z,102608.06
2022-12-03T01:57:24.957Z,102610.66
2022-12-03T01:59:52.672Z,102609.81
2022-12-03T02:02:25.393Z,102606.31
2022-12-03T02:04:55.991Z,102600.19
2022-12-03T02:07:28.975Z,102608.88
2022-12-03T02:09:57.662Z,102610.56
2022-12-03T02:12:43.957Z,102606.22
2022-12-03T02:15:11.008Z,102594.88
2022-12-03T02:17:37.794Z,102600.97
2022-12-03T02:20:08.588Z,102594.00
2022-12-03T02:23:04.904Z,102605.31
2022-12-03T02:25:34.577Z,102598.34
2022-12-03T02:28:01.777Z,102592.25
2022-12-03T02:30:29.998Z,102587.00
2022-12-03T02:32:56.719Z,102591.34
2022-12-03T02:35:26.111Z,102596.50
2022-12-03T02:37:58.337Z,102598.22
2022-12-03T02:40:28.798Z,102587.78
2022-12-03T02:42:58.950Z,102593.00
2022-12-03T02:45:39.378Z,102588.66
2022-12-03T02:48:14.743Z,102586.03
2022-12-03T02:50:43.932Z,102585.13
2022-12-03T02:53:16.959Z,102584.22
2022-12-03T02:55:44.033Z,102589.44
2022-12-03T02:58:11.687Z,102582.44
2022-12-03T03:00:38.566Z,102580.72
2022-12-03T03:03:07.855Z,102580.72
2022-12-03T03:05:36.589Z,102584.13
2022-12-03T03:08:03.965Z,102578.94
2022-12-03T03:10:30.882Z,102575.47
2022-12-03T03:12:57.371Z,102572.88
2022-12-03T03:15:25.151Z,102569.34
2022-12-03T03:17:51.961Z,102565.84
2022-12-03T03:20:18.819Z,102572.78
2022-12-03T03:22:45.235Z,102568.47
2022-12-03T03:25:16.951Z,102564.97
2022-12-03T03:27:45.098Z,102564.06
2022-12-03T03:30:13.058Z,102567.50
2022-12-03T03:32:40.697Z,102567.50
2022-12-03T03:35:08.845Z,102564.91
2022-12-03T03:37:35.482Z,102561.38
2022-12-03T03:40:02.268Z,102559.69
2022-12-03T03:42:28.787Z,102561.34
2022-12-03T03:44:55.433Z,102560.44
2022-12-03T03:47:23.746Z,102549.16
2022-12-03T03:49:50.799Z,102551.72
2022-12-03T03:52:19.542Z,102550.88
2022-12-03T03:54:46.823Z,102550.88
2022-12-03T03:57:13.208Z,102546.53
2022-12-03T03:59:39.915Z,102543.00
2022-12-03T04:02:06.294Z,102545.59
2022-12-03T04:04:36.507Z,102547.31
2022-12-03T04:07:02.971Z,102542.09
2022-12-03T04:09:29.324Z,102542.91
2022-12-03T04:12:14.086Z,102541.19
2022-12-03T04:14:40.410Z,102535.94
2022-12-03T04:17:06.765Z,102540.31
2022-12-03T04:19:33.129Z,102533.34
2022-12-03T04:22:17.850Z,102536.78
2022-12-03T04:24:44.167Z,102538.53
2022-12-03T04:27:29.003Z,102534.19
2022-12-03T04:29:55.361Z,102528.97
2022-12-03T04:32:40.450Z,102538.50
2022-12-03T04:35:25.743Z,102526.31
2022-12-03T04:37:52.141Z,102526.38
2022-12-03T04:40:37.061Z,102522.91
2022-12-03T04:43:03.413Z,102522.88
2022-12-03T04:45:29.759Z,102529.84
2022-12-03T04:47:56.093Z,102525.47
2022-12-03T04:50:22.402Z,102527.22
2022-12-03T04:52:48.727Z,102522.06
2022-12-03T04:55:15.165Z,102522.03
2022-12-03T04:57:41.532Z,102526.38
2022-12-03T05:00:08.422Z,102526.38
2022-12-03T05:02:34.737Z,102531.59
2022-12-03T05:05:01.164Z,102527.22
2022-12-03T05:07:27.553Z,102521.16
2022-12-03T05:09:53.953Z,102528.97
2022-12-03T05:12:20.360Z,102524.69
2022-12-03T05:14:46.663Z,102528.13
2022-12-03T05:17:13.033Z,102528.19
2022-12-03T05:19:57.698Z,102524.78
2022-12-03T05:22:24.001Z,102523.03
2022-12-03T05:24:50.399Z,102519.63
2022-12-03T05:27:23.201Z,102516.13
2022-12-03T05:29:50.135Z,102522.22
2022-12-03T05:32:16.583Z,102516.22
2022-12-03T05:34:42.885Z,102524.94
2022-12-03T05:37:09.212Z,102514.50
2022-12-03T05:39:35.574Z,102512.81
2022-12-03T05:42:20.457Z,102511.97
2022-12-03T05:44:46.755Z,102511.97
2022-12-03T05:47:13.211Z,102518.09
2022-12-03T05:49:39.714Z,102505.97
2022-12-03T05:52:06.372Z,102506.81
2022-12-03T05:54:32.801Z,102502.50
2022-12-03T05:56:59.156Z,102498.16
2022-12-03T05:59:25.645Z,102499.91
2022-12-03T06:01:52.026Z,102495.63
2022-12-03T06:04:18.413Z,102501.72
2022-12-03T06:06:44.781Z,102499.97
2022-12-03T06:09:11.077Z,102497.34
2022-12-03T06:11:37.421Z,102497.34
2022-12-03T06:14:03.807Z,102487.81
2022-12-03T06:16:30.177Z,102490.47
2022-12-03T06:18:56.505Z,102480.00
2022-12-03T06:21:22.850Z,102479.13
2022-12-03T06:23:49.182Z,102480.00
2022-12-03T06:26:15.598Z,102480.88
2022-12-03T06:28:47.463Z,102472.22
2022-12-03T06:31:14.180Z,102477.44
2022-12-03T06:33:40.621Z,102481.78
2022-12-03T06:36:07.265Z,102480.94
2022-12-03T06:38:33.641Z,102482.69
2022-12-03T06:40:59.954Z,102480.09
2022-12-03T06:43:26.456Z,102481.88
2022-12-03T06:45:52.889Z,102483.59
2022-12-03T06:48:19.209Z,102481.03
2022-12-03T06:50:45.494Z,102483.66
2022-12-03T06:53:11.837Z,102478.44
2022-12-03T06:55:38.186Z,102475.03
2022-12-03T06:58:04.534Z,102471.63
2022-12-03T07:00:30.931Z,102473.34
2022-12-03T07:02:57.329Z,102475.16
2022-12-03T07:05:23.711Z,102482.06
2022-12-03T07:07:52.146Z,102480.34
2022-12-03T07:10:19.102Z,102488.16
2022-12-03T07:12:45.434Z,102485.56
2022-12-03T07:15:12.048Z,102483.81
2022-12-03T07:17:38.446Z,102480.41
2022-12-03T07:20:05.586Z,102494.31
2022-12-03T07:22:31.957Z,102494.31
2022-12-03T07:24:58.331Z,102494.31
2022-12-03T07:27:24.665Z,102494.38
2022-12-03T07:29:51.084Z,102490.06
2022-12-03T07:32:17.487Z,102484.06
2022-12-03T07:34:43.826Z,102511.81
2022-12-03T07:37:10.138Z,102498.84
2022-12-03T07:39:36.497Z,102503.19
2022-12-03T07:42:02.840Z,102496.28
2022-12-03T07:44:31.582Z,102504.09
2022-12-03T07:46:59.198Z,102504.94
2022-12-03T07:49:26.717Z,102502.28
2022-12-03T07:51:56.947Z,102505.78
2022-12-03T07:54:24.195Z,102503.19
2022-12-03T07:56:50.581Z,102499.78
2022-12-03T07:59:17.473Z,102502.41
2022-12-03T08:01:44.366Z,102499.84
2022-12-03T08:04:12.828Z,102494.63
2022-12-03T08:06:39.274Z,102502.50
2022-12-03T08:09:05.592Z,102494.63
2022-12-03T08:11:33.080Z,102496.44
2022-12-03T08:13:59.630Z,102495.59
2022-12-03T08:16:26.979Z,102499.09
2022-12-03T08:18:57.395Z,102492.13
2022-12-03T08:21:23.760Z,102492.09
2022-12-03T08:23:50.133Z,102492.09
2022-12-03T08:26:24.013Z,102487.78
2022-12-03T08:28:52.078Z,102473.06
2022-12-03T08:31:32.413Z,102476.53
2022-12-03T08:34:15.081Z,102487.78
2022-12-03T08:36:41.523Z,102480.09
2022-12-03T08:39:33.560Z,102484.47
2022-12-03T08:42:30.647Z,102489.75
2022-12-03T08:45:00.310Z,102482.84
2022-12-03T08:47:29.161Z,102479.44
2022-12-03T08:49:58.788Z,102489.84
2022-12-03T08:52:33.201Z,102487.22
2022-12-03T08:55:02.687Z,102479.44
2022-12-03T08:57:34.401Z,102479.44
2022-12-03T09:00:22.859Z,102481.13
2022-12-03T09:02:54.422Z,102481.97
2022-12-03T09:05:23.840Z,102477.69
2022-12-03T09:07:50.245Z,102477.63
2022-12-03T09:10:16.698Z,102465.53
2022-12-03T09:12:58.158Z,102467.31
2022-12-03T09:15:24.542Z,102462.19
2022-12-03T09:17:50.930Z,102465.59
2022-12-03T09:20:17.433Z,102462.06
2022-12-03T09:22:43.827Z,102464.72
2022-12-03T09:25:10.164Z,102464.72
2022-12-03T09:27:36.798Z,102465.59
2022-12-03T09:30:04.205Z,102460.47
2022-12-03T09:32:30.583Z,102459.56
2022-12-03T09:34:57.213Z,102462.19
2022-12-03T09:37:23.639Z,102463.97
2022-12-03T09:39:50.011Z,102467.53
2022-12-03T09:42:16.440Z,102455.53
2022-12-03T09:44:43.779Z,102469.38
2022-12-03T09:47:10.193Z,102467.63
2022-12-03T09:49:38.754Z,102459.69
2022-12-03T09:52:06.745Z,102470.88
2022-12-03T09:54:33.648Z,102467.38
2022-12-03T09:57:02.564Z,102468.31
2022-12-03T09:59:34.601Z,102466.63
2022-12-03T10:02:01.980Z,102465.78
2022-12-03T10:04:29.737Z,102468.38
2022-12-03T10:06:58.221Z,102472.72
2022-12-03T10:09:28.036Z,102475.34
2022-12-03T10:11:56.302Z,102477.81
2022-12-03T10:14:22.849Z,102477.78
2022-12-03T10:16:49.720Z,102474.38
2022-12-03T10:19:24.390Z,102467.56
2022-12-03T10:21:50.853Z,102470.22
2022-12-03T10:24:17.169Z,102468.63
2022-12-03T10:26:45.899Z,102471.28
2022-12-03T10:29:19.436Z,102464.41
2022-12-03T10:31:54.523Z,102464.50
2022-12-03T10:34:25.926Z,102469.78
2022-12-03T10:37:11.098Z,102469.78
2022-12-03T10:39:56.222Z,102465.56
2022-12-03T10:42:23.802Z,102454.41
2022-12-03T10:45:07.790Z,102450.09
2022-12-03T10:47:34.212Z,102445.63
2022-12-03T10:50:07.273Z,102436.06
2022-12-03T10:52:33.719Z,102426.53
2022-12-03T10:55:00.112Z,102426.69
2022-12-03T10:57:26.600Z,102431.94
2022-12-03T10:59:52.970Z,102432.91
2022-12-03T11:02:23.155Z,102426.00
2022-12-03T11:04:50.277Z,102425.09
2022-12-03T11:07:21.701Z,102432.06
2022-12-03T11:09:51.126Z,102420.81
2022-12-03T11:12:26.272Z,102413.13
2022-12-03T11:14:53.954Z,102425.34
2022-12-03T11:17:40.767Z,102414.09
2022-12-03T11:20:20.940Z,102414.13
2022-12-03T11:22:50.336Z,102414.94
2022-12-03T11:25:25.951Z,102408.88
2022-12-03T11:28:10.325Z,102408.78
2022-12-03T11:30:49.083Z,102409.69
2022-12-03T11:33:30.382Z,102403.53
2022-12-03T11:36:02.816Z,102397.41
2022-12-03T11:38:38.284Z,102401.75
2022-12-03T11:41:12.943Z,102390.44
2022-12-03T11:43:57.243Z,102382.56
2022-12-03T11:46:27.619Z,102383.44
2022-12-03T11:48:56.364Z,102382.59
2022-12-03T11:51:25.817Z,102369.66
2022-12-03T11:53:54.920Z,102380.00
2022-12-03T11:56:25.382Z,102374.91
2022-12-03T11:59:02.534Z,102370.53
2022-12-03T12:01:39.129Z,102375.69
2022-12-03T12:04:07.525Z,102374.00
2022-12-03T12:06:42.583Z,102369.69
2022-12-03T12:09:09.518Z,102361.09
2022-12-03T12:11:40.381Z,102361.94
2022-12-03T12:14:08.641Z,102362.03
2022-12-03T12:16:51.619Z,102354.19
2022-12-03T12:19:40.243Z,102357.69
2022-12-03T12:22:29.837Z,102351.66
2022-12-03T12:25:05.014Z,102350.75
2022-12-03T12:27:46.806Z,102350.69
2022-12-03T12:33:23.241Z,102333.25
2022-12-03T12:36:00.856Z,102330.72
2022-12-03T12:38:37.282Z,102327.25
2022-12-03T12:41:26.834Z,102322.16
2022-12-03T12:43:54.035Z,102324.69
2022-12-03T12:46:47.166Z,102327.25
2022-12-03T12:49:15.714Z,102321.22
2022-12-03T12:51:47.047Z,102321.31
2022-12-03T12:54:15.038Z,102323.06
2022-12-03T12:56:44.134Z,102317.81
2022-12-03T12:59:24.327Z,102325.66
2022-12-03T13:01:50.865Z,102329.22
2022-12-03T13:04:24.129Z,102321.31
2022-12-03T13:06:53.329Z,102316.09
2022-12-03T13:09:22.817Z,102313.50
2022-12-03T13:12:00.994Z,102315.34
2022-12-03T13:14:34.869Z,102314.56
2022-12-03T13:17:10.154Z,102320.66
2022-12-03T13:20:03.282Z,102314.63
2022-12-03T13:22:27.853Z,102311.13
2022-12-03T13:24:57.261Z,102310.22
2022-12-03T13:27:31.028Z,102304.31
2022-12-03T13:30:13.650Z,102305.19
2022-12-03T13:32:41.992Z,102296.53
2022-12-03T13:35:31.427Z,102303.41
2022-12-03T13:37:59.039Z,102299.97
2022-12-03T13:40:31.329Z,102297.31
2022-12-03T13:42:58.331Z,102303.53
2022-12-03T13:45:38.278Z,102292.28
2022-12-03T13:48:20.026Z,102291.44
2022-12-03T13:50:46.446Z,102287.22
2022-12-03T13:53:22.069Z,102289.91
2022-12-03T13:55:51.732Z,102284.78
2022-12-03T13:58:18.135Z,102284.81
2022-12-03T14:00:44.969Z,102288.38
2022-12-03T14:03:11.641Z,102283.38
2022-12-03T14:05:38.118Z,102290.41
2022-12-03T14:08:05.933Z,102284.38
2022-12-03T14:10:32.399Z,102291.41
2022-12-03T14:12:58.871Z,102286.28
2022-12-03T14:15:26.420Z,102284.53
2022-12-03T14:17:52.898Z,102282.88
2022-12-03T14:20:19.758Z,102282.00
2022-12-03T14:22:46.135Z,102269.06
2022-12-03T14:25:12.521Z,102277.75
2022-12-03T14:27:38.888Z,102257.84
2022-12-03T14:30:06.085Z,102266.47
2022-12-03T14:32:32.430Z,102252.56
2022-12-03T14:34:58.750Z,102261.03
2022-12-03T14:37:25.141Z,102263.59
2022-12-03T14:39:51.766Z,102271.34
2022-12-03T14:42:18.373Z,102264.34
2022-12-03T14:44:50.313Z,102267.75
2022-12-03T14:47:19.979Z,102263.41
2022-12-03T14:49:46.551Z,102264.38
2022-12-03T14:52:13.109Z,102260.09
2022-12-03T14:54:42.471Z,102268.78
2022-12-03T14:57:11.367Z,102265.34
2022-12-03T14:59:37.918Z,102275.72
2022-12-03T15:02:04.354Z,102267.13
2022-12-03T15:04:30.845Z,102269.66
2022-12-03T15:06:57.205Z,102262.69
2022-12-03T15:09:23.657Z,102258.38
2022-12-03T15:11:50.086Z,102261.84
2022-12-03T15:14:16.502Z,102263.50
2022-12-03T15:16:42.902Z,102269.63
2022-12-03T15:19:09.393Z,102262.75
2022-12-03T15:21:35.822Z,102260.16
2022-12-03T15:24:03.052Z,102266.19
2022-12-03T15:26:29.915Z,102263.59
2022-12-03T15:28:56.279Z,102267.03
2022-12-03T15:31:22.680Z,102261.94
2022-12-03T15:33:49.067Z,102259.38
2022-12-03T15:36:15.452Z,102264.59
2022-12-03T15:38:41.857Z,102263.78
2022-12-03T15:41:26.734Z,102261.25
2022-12-03T15:43:53.249Z,102261.28
2022-12-03T15:46:20.361Z,102263.94
2022-12-03T15:48:47.764Z,102263.94
2022-12-03T15:51:14.843Z,102271.81
2022-12-03T15:53:41.417Z,102266.63
2022-12-03T15:56:08.349Z,102270.06
2022-12-03T15:58:35.154Z,102277.84
2022-12-03T16:01:01.620Z,102276.13
2022-12-03T16:03:28.126Z,102271.06
2022-12-03T16:05:54.636Z,102267.66
2022-12-03T16:08:21.144Z,102278.84
2022-12-03T16:10:47.645Z,102277.97
2022-12-03T16:13:14.034Z,102276.16
2022-12-03T16:15:40.513Z,102278.81
2022-12-03T16:18:07.037Z,102279.66
2022-12-03T16:20:33.392Z,102279.66
2022-12-03T16:22:59.681Z,102265.03
2022-12-03T16:25:26.081Z,102262.47
2022-12-03T16:27:52.433Z,102264.22
2022-12-03T16:30:19.005Z,102266.81
2022-12-03T16:32:45.311Z,102270.22
2022-12-03T16:35:11.632Z,102264.16
2022-12-03T16:37:37.966Z,102272.84
2022-12-03T16:40:04.816Z,102268.56
2022-12-03T16:42:31.158Z,102263.31
2022-12-03T16:45:03.099Z,102254.69
2022-12-03T16:47:33.848Z,102250.28
2022-12-03T16:50:06.429Z,102246.88
2022-12-03T16:52:33.029Z,102240.00
2022-12-03T16:54:59.386Z,102240.84
2022-12-03T16:57:31.746Z,102252.13
2022-12-03T16:59:59.864Z,102250.44
2022-12-03T17:02:27.431Z,102245.31
2022-12-03T17:04:53.889Z,102243.53
2022-12-03T17:07:20.191Z,102246.13
2022-12-03T17:09:46.622Z,102236.66
2022-12-03T17:12:12.968Z,102230.59
2022-12-03T17:14:39.374Z,102241.84
2022-12-03T17:17:05.709Z,102247.94
2022-12-03T17:19:32.022Z,102249.63
2022-12-03T17:21:59.694Z,102250.53
2022-12-03T17:24:26.075Z,102246.22
2022-12-03T17:26:52.511Z,102249.72
2022-12-03T17:29:18.921Z,102249.66
2022-12-03T17:31:45.386Z,102253.97
2022-12-03T17:34:11.828Z,102257.41
2022-12-03T17:36:38.194Z,102254.88
2022-12-03T17:39:04.602Z,102246.22
2022-12-03T17:41:30.920Z,102252.38
2022-12-03T17:43:57.237Z,102237.69
2022-12-03T17:46:23.641Z,102249.81
2022-12-03T17:48:50.035Z,102246.38
2022-12-03T17:51:16.441Z,102243.81
2022-12-03T17:53:42.827Z,102246.38
2022-12-03T17:56:09.457Z,102255.06
2022-12-03T17:58:35.810Z,102241.31
2022-12-03T18:01:03.256Z,102242.16
2022-12-03T18:03:30.233Z,102247.31
2022-12-03T18:05:56.741Z,102243.91
2022-12-03T18:08:23.290Z,102249.09
2022-12-03T18:10:49.814Z,102244.75
2022-12-03T18:13:16.245Z,102236.94
2022-12-03T18:15:42.594Z,102235.19
2022-12-03T18:18:09.018Z,102235.22
2022-12-03T18:20:35.667Z,102230.09
2022-12-03T18:23:02.275Z,102230.19
2022-12-03T18:25:29.145Z,102225.78
2022-12-03T18:27:55.989Z,102218.84
2022-12-03T18:30:22.606Z,102223.19
2022-12-03T18:32:50.559Z,102223.19
2022-12-03T18:35:17.132Z,102222.31
2022-12-03T18:37:43.577Z,102222.31
2022-12-03T18:40:18.549Z,102224.09
2022-12-03T18:42:44.876Z,102214.59
2022-12-03T18:45:13.026Z,102218.09
2022-12-03T18:47:39.578Z,102222.44
2022-12-03T18:50:07.147Z,102222.44
2022-12-03T18:52:33.854Z,102216.34
2022-12-03T18:55:00.217Z,102205.91
2022-12-03T18:57:26.600Z,102212.91
2022-12-03T18:59:53.406Z,102213.75
2022-12-03T19:03:01.936Z,102222.38
2022-12-03T19:05:10.253Z,102216.31
2022-12-03T19:07:36.965Z,102211.13
2022-12-03T19:10:03.933Z,102204.19
2022-12-03T19:12:31.062Z,102204.22
2022-12-03T19:14:57.431Z,102214.66
2022-12-03T19:17:23.814Z,102217.25
2022-12-03T19:19:50.137Z,102216.34
2022-12-03T19:22:16.516Z,102216.34
2022-12-03T19:24:43.664Z,102211.16
2022-12-03T19:27:10.013Z,102206.84
2022-12-03T19:29:36.343Z,102207.84
2022-12-03T19:32:02.733Z,102209.56
2022-12-03T19:34:29.270Z,102215.63
2022-12-03T19:36:55.769Z,102200.13
2022-12-03T19:39:22.257Z,102203.56
2022-12-03T19:41:48.574Z,102198.41
2022-12-03T19:44:16.419Z,102198.47
2022-12-03T19:46:43.496Z,102197.59
2022-12-03T19:49:10.597Z,102202.81
2022-12-03T19:51:37.052Z,102203.66
2022-12-03T19:54:08.096Z,102202.81
2022-12-03T19:56:34.730Z,102188.13
2022-12-03T19:59:01.086Z,102195.06
2022-12-03T20:01:29.793Z,102187.28
2022-12-03T20:03:58.490Z,102196.81
2022-12-03T20:06:28.166Z,102190.78
2022-12-03T20:09:04.056Z,102196.84
2022-12-03T20:11:32.461Z,102200.31
2022-12-03T20:14:02.069Z,102194.25
2022-12-03T20:16:29.387Z,102199.44
2022-12-03T20:18:58.633Z,102206.34
2022-12-03T20:21:25.445Z,102204.63
2022-12-03T20:23:51.918Z,102199.44
2022-12-03T20:26:20.101Z,102195.16
2022-12-03T20:28:50.301Z,102194.25
2022-12-03T20:31:19.485Z,102196.03
2022-12-03T20:33:48.222Z,102188.22
2022-12-03T20:36:16.359Z,102190.84
2022-12-03T20:38:43.498Z,102179.63
2022-12-03T20:41:14.531Z,102186.47
2022-12-03T20:43:41.192Z,102180.47
2022-12-03T20:46:08.168Z,102187.41
2022-12-03T20:48:35.019Z,102185.66
2022-12-03T20:51:13.309Z,102172.69
2022-12-03T20:53:40.019Z,102179.63
2022-12-03T20:56:07.416Z,102169.34
2022-12-03T20:58:34.861Z,102160.66
2022-12-03T21:01:19.341Z,102157.28
2022-12-03T21:03:46.709Z,102158.16
2022-12-03T21:06:14.048Z,102170.25
2022-12-03T21:08:42.479Z,102156.44
2022-12-03T21:11:10.340Z,102159.03
2022-12-03T21:13:36.797Z,102161.63
2022-12-03T21:16:08.173Z,102163.41
2022-12-03T21:18:34.988Z,102157.31
2022-12-03T21:21:02.710Z,102167.75
2022-12-03T21:23:30.354Z,102172.09
2022-12-03T21:26:08.535Z,102171.19
2022-12-03T21:28:35.148Z,102160.81
2022-12-03T21:31:07.492Z,102169.44
2022-12-03T21:33:34.869Z,102164.28
2022-12-03T21:36:01.737Z,102159.09
2022-12-03T21:38:29.274Z,102163.44
2022-12-03T21:40:56.505Z,102153.91
2022-12-03T21:43:23.648Z,102153.91
2022-12-03T21:45:50.180Z,102161.69
2022-12-03T21:48:17.744Z,102151.31
2022-12-03T21:50:45.081Z,102151.31
2022-12-03T21:53:12.102Z,102160.00
2022-12-03T21:55:43.027Z,102162.59
2022-12-03T21:58:09.429Z,102160.84
2022-12-03T22:00:35.805Z,102161.69
2022-12-03T22:03:02.217Z,102165.19
2022-12-03T22:05:28.624Z,102158.31
2022-12-03T22:07:55.025Z,102150.47
2022-12-03T22:10:21.463Z,102147.03
2022-12-03T22:12:47.874Z,102146.13
2022-12-03T22:15:18.819Z,102146.13
2022-12-03T22:17:45.695Z,102147.06
2022-12-03T22:20:12.520Z,102151.41
2022-12-03T22:22:38.956Z,102150.53
2022-12-03T22:25:05.557Z,102147.94
2022-12-03T22:27:31.955Z,102144.50
2022-12-03T22:29:58.412Z,102146.22
2022-12-03T22:32:24.915Z,102144.50
2022-12-03T22:34:51.459Z,102154.00
2022-12-03T22:37:17.862Z,102143.66
2022-12-03T22:39:44.228Z,102154.81
2022-12-03T22:42:10.589Z,102148.72
2022-12-03T22:44:36.901Z,102146.13
2022-12-03T22:47:03.583Z,102148.66
2022-12-03T22:49:30.001Z,102141.81
2022-12-03T22:51:56.343Z,102144.34
2022-12-03T22:54:24.270Z,102134.88
2022-12-03T22:56:50.840Z,102140.88
2022-12-03T22:59:17.428Z,102135.63
2022-12-03T23:01:43.889Z,102134.72
2022-12-03T23:04:11.116Z,102128.66
2022-12-03T23:06:37.931Z,102129.50
2022-12-03T23:09:06.921Z,102133.78
2022-12-03T23:11:33.957Z,102130.34
2022-12-03T23:14:00.721Z,102125.16
2022-12-03T23:16:30.352Z,102121.75
2022-12-03T23:19:01.273Z,102120.06
2022-12-03T23:21:30.850Z,102115.81
2022-12-03T23:23:59.121Z,102112.34
2022-12-03T23:26:25.845Z,102116.66
2022-12-03T23:28:52.514Z,102118.34
2022-12-03T23:31:28.034Z,102130.44
2022-12-03T23:33:55.674Z,102127.88
2022-12-03T23:36:24.175Z,102122.69
2022-12-03T23:38:50.601Z,102128.69
2022-12-03T23:41:19.600Z,102127.00
2022-12-03T23:43:46.263Z,102120.13
2022-12-03T23:46:18.661Z,102126.09
2022-12-03T23:48:45.617Z,102132.19
2022-12-03T23:51:18.355Z,102129.59
2022-12-03T23:53:45.594Z,102124.44
2022-12-03T23:56:15.533Z,102122.66
2022-12-03T23:58:42.178Z,102124.34
